createdAt,value
2022-09-05T00:02:48.140Z,48.54
2022-09-05T00:06:02.707Z,48.59
2022-09-05T00:08:55.362Z,47.98
2022-09-05T00:11:43.000Z,47.86
2022-09-05T00:15:17.576Z,48.26
2022-09-05T00:21:08.197Z,48.29
2022-09-05T00:24:31.894Z,48.07
2022-09-05T00:24:36.822Z,48.55
2022-09-05T00:27:20.670Z,48.51
2022-09-05T00:30:41.987Z,48.63
2022-09-05T00:33:32.548Z,48.08
2022-09-05T00:36:38.924Z,48.39
2022-09-05T00:39:21.207Z,48.15
2022-09-05T00:41:55.910Z,48.58
2022-09-05T00:44:33.904Z,48.54
2022-09-05T00:47:15.982Z,48.15
2022-09-05T00:49:52.496Z,48.09
2022-09-05T00:52:33.389Z,48.15
2022-09-05T00:55:21.237Z,47.86
2022-09-05T00:58:21.076Z,47.91
2022-09-05T01:00:56.955Z,48.40
2022-09-05T01:03:55.034Z,48.10
2022-09-05T01:06:51.203Z,47.87
2022-09-05T01:09:41.827Z,47.84
2022-09-05T01:12:52.670Z,48.11
2022-09-05T01:15:34.570Z,47.87
2022-09-05T01:18:42.765Z,47.84
2022-09-05T01:22:11.127Z,47.89
2022-09-05T01:25:11.504Z,47.93
2022-09-05T01:29:13.364Z,48.54
2022-09-05T01:31:07.244Z,47.94
2022-09-05T01:33:54.518Z,48.29
2022-09-05T01:36:52.321Z,47.81
2022-09-05T01:40:14.413Z,48.45
2022-09-05T01:42:43.562Z,48.44
2022-09-05T01:45:30.770Z,47.76
2022-09-05T01:48:18.339Z,48.22
2022-09-05T01:51:02.716Z,48.08
2022-09-05T01:53:45.333Z,48.08
2022-09-05T01:56:37.858Z,48.42
2022-09-05T01:59:25.245Z,48.40
2022-09-05T02:02:25.157Z,47.94
2022-09-05T02:05:48.602Z,48.43
2022-09-05T02:09:03.894Z,47.98
2022-09-05T02:11:51.905Z,47.76
2022-09-05T02:14:39.137Z,47.83
2022-09-05T02:17:48.143Z,47.96
2022-09-05T02:20:29.429Z,47.79
2022-09-05T02:23:31.053Z,48.07
2022-09-05T02:26:10.495Z,48.03
2022-09-05T02:28:55.380Z,48.55
2022-09-05T02:31:37.741Z,48.35
2022-09-05T02:34:20.163Z,48.20
2022-09-05T02:37:03.733Z,48.36
2022-09-05T02:45:06.741Z,47.85
2022-09-05T02:45:09.054Z,47.87
2022-09-05T02:46:07.039Z,47.94
2022-09-05T02:48:54.168Z,48.38
2022-09-05T02:57:23.786Z,48.43
2022-09-05T02:57:39.659Z,47.86
2022-09-05T02:58:06.960Z,47.99
2022-09-05T03:00:45.316Z,47.90
2022-09-05T03:03:37.093Z,48.30
2022-09-05T03:06:34.902Z,47.95
2022-09-05T03:09:29.457Z,48.39
2022-09-05T03:12:59.747Z,48.04
2022-09-05T03:16:47.010Z,48.04
2022-09-05T03:20:06.047Z,48.65
2022-09-05T03:23:29.823Z,48.14
2022-09-05T03:27:00.238Z,48.08
2022-09-05T03:30:09.309Z,48.21
2022-09-05T03:33:45.681Z,48.56
2022-09-05T03:37:23.562Z,48.23
2022-09-05T03:40:49.267Z,48.74
2022-09-05T03:44:08.071Z,48.39
2022-09-05T03:47:16.807Z,48.84
2022-09-05T03:56:32.398Z,48.19
2022-09-05T03:57:16.673Z,48.59
2022-09-05T03:57:46.568Z,48.67
2022-09-05T04:00:25.319Z,48.56
2022-09-05T04:08:11.352Z,48.62
2022-09-05T04:08:17.764Z,48.91
2022-09-05T04:09:49.600Z,48.82
2022-09-05T04:12:22.528Z,48.32
2022-09-05T04:15:01.363Z,48.92
2022-09-05T04:17:39.922Z,48.85
2022-09-05T04:20:19.382Z,48.78
2022-09-05T04:23:30.972Z,48.80
2022-09-05T04:26:30.813Z,48.77
2022-09-05T04:29:18.359Z,48.97
2022-09-05T04:32:18.853Z,48.51
2022-09-05T04:35:24.604Z,49.12
2022-09-05T04:38:00.986Z,48.56
2022-09-05T04:40:58.891Z,48.69
2022-09-05T04:43:37.685Z,49.05
2022-09-05T04:46:30.430Z,49.07
2022-09-05T04:49:10.150Z,48.51
2022-09-05T04:52:21.897Z,48.94
2022-09-05T04:55:11.660Z,48.94
2022-09-05T04:57:50.748Z,48.76
2022-09-05T05:05:58.139Z,48.62
2022-09-05T05:06:10.494Z,48.90
2022-09-05T05:06:45.354Z,49.23
2022-09-05T05:09:27.022Z,49.26
2022-09-05T05:17:55.706Z,48.67
2022-09-05T05:18:07.944Z,49.06
2022-09-05T05:18:36.607Z,49.11
2022-09-05T05:21:02.398Z,48.65
2022-09-05T05:23:41.760Z,49.00
2022-09-05T05:26:22.605Z,49.35
2022-09-05T05:29:02.212Z,48.68
2022-09-05T05:31:35.642Z,48.62
2022-09-05T05:34:24.546Z,48.58
2022-09-05T05:37:03.329Z,48.67
2022-09-05T05:39:43.165Z,48.87
2022-09-05T05:42:23.019Z,49.08
2022-09-05T05:44:56.723Z,49.10
2022-09-05T05:47:32.957Z,48.64
2022-09-05T05:50:12.201Z,48.72
2022-09-05T05:53:33.502Z,48.52
2022-09-05T05:57:21.259Z,49.05
2022-09-05T06:00:07.548Z,48.49
2022-09-05T06:03:36.533Z,48.61
2022-09-05T06:06:50.785Z,48.46
2022-09-05T06:14:51.799Z,48.82
2022-09-05T06:14:56.700Z,48.43
2022-09-05T06:17:36.314Z,48.75
2022-09-05T06:22:06.975Z,48.60
2022-09-05T06:24:46.274Z,48.20
2022-09-05T06:28:18.601Z,48.05
2022-09-05T06:31:31.456Z,48.72
2022-09-05T06:34:34.980Z,48.33
2022-09-05T06:37:26.664Z,48.73
2022-09-05T06:40:20.736Z,48.40
2022-09-05T06:43:29.980Z,48.37
2022-09-05T06:46:54.521Z,48.27
2022-09-05T06:49:32.080Z,48.04
2022-09-05T06:52:57.435Z,48.13
2022-09-05T06:55:55.737Z,48.33
2022-09-05T06:59:30.531Z,48.27
2022-09-05T07:02:23.902Z,48.51
2022-09-05T07:05:38.548Z,47.84
2022-09-05T07:08:35.847Z,48.10
2022-09-05T07:11:18.678Z,47.64
2022-09-05T07:14:03.619Z,47.77
2022-09-05T07:16:51.380Z,47.71
2022-09-05T07:19:34.416Z,47.74
2022-09-05T07:22:47.739Z,47.60
2022-09-05T07:25:18.195Z,47.39
2022-09-05T07:28:18.063Z,47.09
2022-09-05T07:30:54.028Z,47.61
2022-09-05T07:33:30.687Z,47.44
2022-09-05T07:36:12.784Z,46.88
2022-09-05T07:38:54.771Z,46.90
2022-09-05T07:41:32.961Z,46.85
2022-09-05T07:44:13.796Z,46.66
2022-09-05T07:46:50.605Z,46.98
2022-09-05T07:49:25.874Z,46.55
2022-09-05T07:56:54.954Z,46.61
2022-09-05T07:57:03.720Z,47.08
2022-09-05T07:57:52.216Z,46.57
2022-09-05T08:00:29.799Z,46.32
2022-09-05T08:03:12.117Z,47.05
2022-09-05T08:05:48.536Z,47.08
2022-09-05T08:08:27.227Z,46.79
2022-09-05T08:11:24.015Z,46.67
2022-09-05T08:14:38.341Z,46.76
2022-09-05T08:16:57.800Z,46.76
2022-09-05T08:20:17.164Z,46.48
2022-09-05T08:22:58.767Z,46.30
2022-09-05T08:25:56.791Z,46.37
2022-09-05T08:28:39.422Z,46.03
2022-09-05T08:31:18.870Z,46.38
2022-09-05T08:33:55.700Z,46.10
2022-09-05T08:36:38.035Z,46.42
2022-09-05T08:39:11.933Z,45.95
2022-09-05T08:42:13.902Z,46.22
2022-09-05T08:46:44.407Z,45.90
2022-09-05T08:48:00.135Z,45.96
2022-09-05T08:50:57.609Z,45.79
2022-09-05T08:53:49.279Z,45.75
2022-09-05T08:56:26.037Z,45.67
2022-09-05T08:59:27.790Z,45.57
2022-09-05T09:02:47.151Z,45.70
2022-09-05T09:06:14.023Z,45.91
2022-09-05T09:09:19.723Z,45.70
2022-09-05T09:12:00.284Z,45.63
2022-09-05T09:14:56.818Z,45.75
2022-09-05T09:17:45.876Z,45.41
2022-09-05T09:20:38.066Z,45.30
2022-09-05T09:23:42.029Z,45.42
2022-09-05T09:26:17.749Z,45.69
2022-09-05T09:28:58.922Z,45.03
2022-09-05T09:31:47.417Z,45.28
2022-09-05T09:34:45.739Z,45.51
2022-09-05T09:38:00.109Z,45.21
2022-09-05T09:41:27.428Z,44.91
2022-09-05T09:45:22.931Z,44.95
2022-09-05T09:49:03.314Z,44.84
2022-09-05T09:52:23.562Z,45.13
2022-09-05T09:56:06.942Z,45.36
2022-09-05T09:59:54.291Z,44.98
2022-09-05T10:05:28.860Z,44.92
2022-09-05T10:10:47.752Z,45.03
2022-09-05T10:11:23.798Z,45.13
2022-09-05T10:14:49.157Z,45.12
2022-09-05T10:17:55.415Z,44.93
2022-09-05T10:21:16.414Z,44.76
2022-09-05T10:24:20.877Z,44.38
2022-09-05T10:27:25.213Z,44.38
2022-09-05T10:30:17.983Z,44.97
2022-09-05T10:35:14.945Z,44.65
2022-09-05T10:36:29.509Z,44.63
2022-09-05T10:39:18.463Z,44.38
2022-09-05T10:42:03.434Z,44.32
2022-09-05T10:44:42.575Z,44.18
2022-09-05T10:47:43.204Z,44.11
2022-09-05T10:50:30.956Z,44.48
2022-09-05T10:53:22.697Z,43.99
2022-09-05T10:56:07.439Z,43.85
2022-09-05T11:02:16.277Z,44.50
2022-09-05T11:02:30.090Z,44.23
2022-09-05T11:05:22.379Z,44.46
2022-09-05T11:08:08.895Z,43.99
2022-09-05T11:10:53.062Z,44.14
2022-09-05T11:13:46.950Z,44.34
2022-09-05T11:16:37.002Z,44.02
2022-09-05T11:19:19.101Z,44.24
2022-09-05T11:22:07.446Z,43.97
2022-09-05T11:24:59.365Z,44.16
2022-09-05T11:27:40.966Z,43.77
2022-09-05T11:30:30.354Z,43.82
2022-09-05T11:37:27.366Z,43.84
2022-09-05T11:39:54.715Z,44.13
2022-09-05T11:40:35.420Z,43.76
2022-09-05T11:44:26.317Z,44.03
2022-09-05T11:47:48.063Z,43.82
2022-09-05T11:51:03.282Z,43.84
2022-09-05T11:54:09.414Z,44.31
2022-09-05T11:57:34.727Z,44.29
2022-09-05T12:00:33.170Z,44.16
2022-09-05T12:04:05.742Z,44.28
2022-09-05T12:07:34.286Z,43.91
2022-09-05T12:10:47.224Z,43.94
2022-09-05T12:13:46.772Z,43.88
2022-09-05T12:16:59.375Z,43.79
2022-09-05T12:19:40.160Z,44.29
2022-09-05T12:22:32.528Z,43.85
2022-09-05T12:27:35.863Z,44.07
2022-09-05T12:29:27.658Z,43.56
2022-09-05T12:32:48.892Z,43.71
2022-09-05T12:36:13.159Z,44.04
2022-09-05T12:40:54.696Z,43.98
2022-09-05T12:41:39.644Z,43.67
2022-09-05T12:44:42.439Z,43.95
2022-09-05T12:47:32.617Z,43.63
2022-09-05T12:50:14.089Z,43.76
2022-09-05T12:52:48.889Z,43.83
2022-09-05T12:55:29.281Z,43.48
2022-09-05T13:02:55.168Z,43.90
2022-09-05T13:03:11.349Z,43.65
2022-09-05T13:04:35.430Z,43.83
2022-09-05T13:07:21.665Z,43.83
2022-09-05T13:12:22.114Z,42.98
2022-09-05T13:14:54.535Z,43.48
2022-09-05T13:15:55.905Z,43.54
2022-09-05T13:18:31.217Z,43.60
2022-09-05T13:21:06.985Z,43.77
2022-09-05T13:23:47.553Z,43.72
2022-09-05T13:26:28.348Z,43.47
2022-09-05T13:29:10.390Z,43.24
2022-09-05T13:38:05.803Z,43.30
2022-09-05T13:38:16.017Z,43.29
2022-09-05T13:41:27.638Z,43.63
2022-09-05T13:44:27.323Z,43.23
2022-09-05T13:47:05.164Z,43.79
2022-09-05T13:50:12.149Z,43.77
2022-09-05T13:52:50.225Z,44.13
2022-09-05T13:55:33.488Z,43.38
2022-09-05T13:58:12.528Z,43.94
2022-09-05T14:01:32.766Z,43.63
2022-09-05T14:05:19.442Z,43.79
2022-09-05T14:09:34.999Z,44.17
2022-09-05T14:12:13.971Z,43.66
2022-09-05T14:15:10.072Z,43.92
2022-09-05T14:18:20.121Z,43.96
2022-09-05T14:21:16.057Z,43.58
2022-09-05T14:23:56.704Z,44.07
2022-09-05T14:26:36.909Z,43.81
2022-09-05T14:29:19.909Z,44.13
2022-09-05T14:37:46.092Z,44.29
2022-09-05T14:37:54.785Z,44.26
2022-09-05T14:38:33.636Z,43.76
2022-09-05T14:42:07.270Z,43.84
2022-09-05T14:45:18.323Z,44.38
2022-09-05T14:48:33.717Z,44.42
2022-09-05T14:51:25.273Z,44.43
2022-09-05T14:54:03.096Z,43.93
2022-09-05T14:59:51.119Z,44.48
2022-09-05T15:02:50.753Z,43.90
2022-09-05T15:02:54.500Z,44.46
2022-09-05T15:05:50.856Z,43.96
2022-09-05T15:10:35.147Z,44.12
2022-09-05T15:12:18.701Z,44.18
2022-09-05T15:14:20.728Z,43.99
2022-09-05T15:17:03.967Z,44.29
2022-09-05T15:20:06.637Z,44.08
2022-09-05T15:22:43.260Z,44.20
2022-09-05T15:25:21.925Z,44.54
2022-09-05T15:27:53.627Z,43.95
2022-09-05T15:30:34.849Z,44.15
2022-09-05T15:33:25.650Z,44.20
2022-09-05T15:35:58.876Z,44.43
2022-09-05T15:38:55.456Z,44.54
2022-09-05T15:41:26.995Z,44.62
2022-09-05T15:44:09.585Z,44.71
2022-09-05T15:46:51.866Z,44.09
2022-09-05T15:49:38.780Z,44.09
2022-09-05T15:52:36.227Z,44.53
2022-09-05T15:55:16.998Z,44.58
2022-09-05T15:57:53.693Z,44.75
2022-09-05T16:00:51.513Z,44.53
2022-09-05T16:03:49.715Z,44.71
2022-09-05T16:10:29.489Z,44.20
2022-09-05T16:10:37.637Z,44.26
2022-09-05T16:12:38.467Z,44.41
2022-09-05T16:16:32.283Z,44.08
2022-09-05T16:23:14.715Z,44.33
2022-09-05T16:23:24.547Z,44.16
2022-09-05T16:24:17.155Z,44.70
2022-09-05T16:26:58.646Z,44.66
2022-09-05T16:29:34.907Z,44.28
2022-09-05T16:32:27.331Z,44.85
2022-09-05T16:35:03.375Z,44.21
2022-09-05T16:37:43.685Z,44.70
2022-09-05T16:40:23.993Z,44.46
2022-09-05T16:43:03.268Z,44.79
2022-09-05T16:45:47.401Z,44.64
2022-09-05T16:48:40.782Z,44.46
2022-09-05T16:51:34.790Z,44.67
2022-09-05T16:54:18.574Z,44.51
2022-09-05T16:56:55.228Z,44.83
2022-09-05T16:59:30.313Z,44.50
2022-09-05T17:02:14.243Z,44.29
2022-09-05T17:05:12.252Z,44.83
2022-09-05T17:08:06.332Z,44.52
2022-09-05T17:10:49.334Z,44.62
2022-09-05T17:13:46.046Z,44.48
2022-09-05T17:16:28.766Z,44.91
2022-09-05T17:19:03.944Z,45.15
2022-09-05T17:24:00.542Z,44.94
2022-09-05T17:29:16.926Z,44.91
2022-09-05T17:29:23.474Z,45.03
2022-09-05T17:31:49.789Z,44.47
2022-09-05T17:33:56.902Z,44.44
2022-09-05T17:36:42.554Z,44.77
2022-09-05T17:39:44.574Z,44.93
2022-09-05T17:42:34.585Z,44.95
2022-09-05T17:45:19.476Z,44.96
2022-09-05T17:47:54.351Z,44.96
2022-09-05T17:50:54.607Z,44.68
2022-09-05T17:53:31.514Z,44.97
2022-09-05T17:56:36.001Z,45.17
2022-09-05T17:59:27.539Z,44.71
2022-09-05T18:02:33.572Z,44.75
2022-09-05T18:05:09.360Z,44.80
2022-09-05T18:07:58.794Z,45.06
2022-09-05T18:11:13.986Z,44.87
2022-09-05T18:14:02.281Z,44.91
2022-09-05T18:17:36.156Z,44.85
2022-09-05T18:20:06.511Z,44.77
2022-09-05T18:22:45.470Z,44.96
2022-09-05T18:25:30.578Z,45.46
2022-09-05T18:28:23.616Z,45.11
2022-09-05T18:30:55.766Z,45.49
2022-09-05T18:33:55.320Z,45.09
2022-09-05T18:36:37.740Z,44.97
2022-09-05T18:39:46.466Z,45.39
2022-09-05T18:42:33.083Z,45.51
2022-09-05T18:45:17.772Z,45.05
2022-09-05T18:48:04.444Z,45.33
2022-09-05T18:50:49.232Z,45.46
2022-09-05T18:53:31.973Z,45.32
2022-09-05T18:56:20.318Z,45.00
2022-09-05T18:59:10.551Z,45.03
2022-09-05T19:01:52.381Z,45.45
2022-09-05T19:04:39.120Z,45.19
2022-09-05T19:07:16.415Z,45.54
2022-09-05T19:10:33.854Z,45.18
2022-09-05T19:13:03.627Z,45.55
2022-09-05T19:15:38.908Z,45.09
2022-09-05T19:18:26.136Z,45.04
2022-09-05T19:21:13.681Z,45.11
2022-09-05T19:23:54.035Z,45.41
2022-09-05T19:26:27.113Z,45.68
2022-09-05T19:37:03.611Z,45.30
2022-09-05T19:37:14.785Z,44.91
2022-09-05T19:37:15.243Z,45.45
2022-09-05T19:37:50.188Z,45.12
2022-09-05T19:47:30.753Z,45.20
2022-09-05T19:47:43.039Z,45.74
2022-09-05T19:47:44.057Z,45.43
2022-09-05T19:49:12.896Z,45.04
2022-09-05T19:51:45.288Z,45.49
2022-09-05T19:54:30.894Z,45.66
2022-09-05T19:57:06.714Z,45.73
2022-09-05T19:59:40.373Z,45.01
2022-09-05T20:02:20.219Z,45.02
2022-09-05T20:04:55.006Z,45.58
2022-09-05T20:07:30.954Z,44.98
2022-09-05T20:10:07.519Z,45.42
2022-09-05T20:12:41.876Z,45.60
2022-09-05T20:15:24.402Z,45.25
2022-09-05T20:17:56.262Z,45.20
2022-09-05T20:20:30.979Z,44.91
2022-09-05T20:23:06.148Z,44.87
2022-09-05T20:25:44.910Z,45.03
2022-09-05T20:28:22.421Z,45.17
2022-09-05T20:30:59.005Z,45.46
2022-09-05T20:33:36.910Z,45.38
2022-09-05T20:42:40.071Z,45.53
2022-09-05T20:43:26.644Z,45.06
2022-09-05T20:43:29.306Z,45.27
2022-09-05T20:44:57.637Z,45.56
2022-09-05T20:50:34.118Z,45.24
2022-09-05T20:54:18.416Z,45.40
2022-09-05T20:54:21.140Z,45.01
2022-09-05T20:56:26.566Z,44.84
2022-09-05T20:58:58.971Z,44.88
2022-09-05T21:01:33.089Z,45.07
2022-09-05T21:04:06.849Z,45.12
2022-09-05T21:06:41.906Z,45.65
2022-09-05T21:09:24.609Z,45.60
2022-09-05T21:11:59.163Z,45.21
2022-09-05T21:14:32.251Z,45.63
2022-09-05T21:17:16.001Z,45.27
2022-09-05T21:19:53.785Z,45.59
2022-09-05T21:22:39.422Z,45.19
2022-09-05T21:25:44.276Z,45.03
2022-09-05T21:28:36.697Z,45.76
2022-09-05T21:31:16.046Z,45.22
2022-09-05T21:33:50.533Z,45.62
2022-09-05T21:36:28.380Z,45.50
2022-09-05T21:38:59.190Z,45.69
2022-09-05T21:41:29.085Z,45.79
2022-09-05T21:47:41.523Z,45.66
2022-09-05T21:47:43.209Z,45.82
2022-09-05T21:49:46.374Z,45.67
2022-09-05T21:52:16.993Z,45.83
2022-09-05T21:59:16.654Z,45.67
2022-09-05T21:59:29.496Z,45.39
2022-09-05T22:00:36.193Z,45.93
2022-09-05T22:03:18.601Z,45.51
2022-09-05T22:06:10.170Z,45.76
2022-09-05T22:09:09.892Z,45.77
2022-09-05T22:11:42.685Z,45.39
2022-09-05T22:14:15.326Z,45.39
2022-09-05T22:16:53.621Z,45.87
2022-09-05T22:19:39.678Z,45.69
2022-09-05T22:22:21.686Z,45.56
2022-09-05T22:25:03.212Z,45.65
2022-09-05T22:27:38.841Z,45.56
2022-09-05T22:30:14.538Z,45.34
2022-09-05T22:32:48.114Z,45.83
2022-09-05T22:35:28.650Z,45.58
2022-09-05T22:38:20.103Z,45.56
2022-09-05T22:41:00.863Z,45.61
2022-09-05T22:43:38.128Z,45.52
2022-09-05T22:46:16.131Z,45.58
2022-09-05T22:48:53.993Z,45.98
2022-09-05T22:51:28.690Z,46.09
2022-09-05T22:54:13.674Z,45.65
2022-09-05T22:56:48.450Z,45.99
2022-09-05T22:59:21.404Z,45.94
2022-09-05T23:01:56.994Z,46.14
2022-09-05T23:04:33.712Z,45.67
2022-09-05T23:07:11.319Z,45.72
2022-09-05T23:09:45.132Z,46.27
2022-09-05T23:12:22.801Z,45.88
2022-09-05T23:15:00.698Z,46.14
2022-09-05T23:17:37.646Z,45.83
2022-09-05T23:20:14.493Z,45.71
2022-09-05T23:22:49.268Z,46.16
2022-09-05T23:25:29.621Z,45.99
2022-09-05T23:28:00.880Z,45.89
2022-09-05T23:30:35.940Z,46.06
2022-09-05T23:33:12.858Z,46.22
2022-09-05T23:35:44.243Z,46.36
2022-09-05T23:38:21.828Z,46.08
2022-09-05T23:41:03.406Z,46.25
2022-09-05T23:43:36.824Z,46.29
2022-09-05T23:46:12.260Z,45.87
2022-09-05T23:48:47.787Z,46.02
2022-09-05T23:51:18.951Z,46.12
2022-09-05T23:53:48.959Z,46.37
2022-09-05T23:56:21.604Z,46.41
2022-09-05T23:58:52.715Z,46.41
